sensor_id;sensor_type;location;lat;lon;timestamp;P1;durP1;ratioP1;P2;durP2;ratioP2
80725;SDS011;70113;59.928;10.878;2023-11-21T00:02:15;14.30;;;7.20;;
80725;SDS011;70113;59.928;10.878;2023-11-21T00:04:40;12.77;;;7.00;;
80725;SDS011;70113;59.928;10.878;2023-11-21T00:43:03;14.20;;;6.75;;
80725;SDS011;70113;59.928;10.878;2023-11-21T00:45:29;12.27;;;6.45;;
80725;SDS011;70113;59.928;10.878;2023-11-21T00:47:55;11.73;;;6.50;;
80725;SDS011;70113;59.928;10.878;2023-11-21T00:50:21;14.07;;;6.22;;
80725;SDS011;70113;59.928;10.878;2023-11-21T00:52:47;11.38;;;6.07;;
80725;SDS011;70113;59.928;10.878;2023-11-21T00:55:13;11.82;;;6.85;;
80725;SDS011;70113;59.928;10.878;2023-11-21T00:57:38;13.85;;;7.15;;
80725;SDS011;70113;59.928;10.878;2023-11-21T01:00:05;11.77;;;6.85;;
80725;SDS011;70113;59.928;10.878;2023-11-21T01:02:40;13.80;;;7.65;;
80725;SDS011;70113;59.928;10.878;2023-11-21T01:05:05;12.55;;;6.85;;
80725;SDS011;70113;59.928;10.878;2023-11-21T01:07:33;11.75;;;6.85;;
80725;SDS011;70113;59.928;10.878;2023-11-21T01:09:59;13.52;;;7.85;;
80725;SDS011;70113;59.928;10.878;2023-11-21T01:12:24;13.45;;;6.72;;
80725;SDS011;70113;59.928;10.878;2023-11-21T01:14:51;12.32;;;7.38;;
80725;SDS011;70113;59.928;10.878;2023-11-21T01:17:16;12.45;;;6.68;;
80725;SDS011;70113;59.928;10.878;2023-11-21T01:19:43;12.30;;;6.55;;
80725;SDS011;70113;59.928;10.878;2023-11-21T01:22:09;10.07;;;5.82;;
80725;SDS011;70113;59.928;10.878;2023-11-21T01:24:37;10.88;;;6.32;;
80725;SDS011;70113;59.928;10.878;2023-11-21T01:27:03;12.38;;;6.00;;
80725;SDS011;70113;59.928;10.878;2023-11-21T01:29:29;11.18;;;6.97;;
80725;SDS011;70113;59.928;10.878;2023-11-21T01:31:55;11.68;;;6.38;;
80725;SDS011;70113;59.928;10.878;2023-11-21T01:34:22;13.88;;;6.20;;
80725;SDS011;70113;59.928;10.878;2023-11-21T01:36:49;11.65;;;6.45;;
80725;SDS011;70113;59.928;10.878;2023-11-21T01:39:15;11.27;;;6.65;;
80725;SDS011;70113;59.928;10.878;2023-11-21T01:41:41;12.82;;;6.75;;
80725;SDS011;70113;59.928;10.878;2023-11-21T01:44:09;10.65;;;5.95;;
80725;SDS011;70113;59.928;10.878;2023-11-21T01:46:35;11.63;;;6.25;;
80725;SDS011;70113;59.928;10.878;2023-11-21T01:49:03;11.25;;;6.05;;
80725;SDS011;70113;59.928;10.878;2023-11-21T01:51:29;10.90;;;6.75;;
80725;SDS011;70113;59.928;10.878;2023-11-21T01:53:56;11.98;;;7.00;;
80725;SDS011;70113;59.928;10.878;2023-11-21T01:56:22;11.30;;;5.72;;
80725;SDS011;70113;59.928;10.878;2023-11-21T01:58:48;12.13;;;6.38;;
80725;SDS011;70113;59.928;10.878;2023-11-21T02:01:14;11.40;;;6.53;;
80725;SDS011;70113;59.928;10.878;2023-11-21T02:03:40;11.55;;;6.70;;
80725;SDS011;70113;59.928;10.878;2023-11-21T02:06:06;10.05;;;6.00;;
80725;SDS011;70113;59.928;10.878;2023-11-21T02:08:34;10.80;;;6.57;;
80725;SDS011;70113;59.928;10.878;2023-11-21T02:10:59;11.35;;;6.43;;
80725;SDS011;70113;59.928;10.878;2023-11-21T02:13:25;10.40;;;6.38;;
80725;SDS011;70113;59.928;10.878;2023-11-21T02:15:51;12.45;;;6.38;;
80725;SDS011;70113;59.928;10.878;2023-11-21T02:18:19;10.80;;;5.93;;
80725;SDS011;70113;59.928;10.878;2023-11-21T02:20:45;12.43;;;6.93;;
80725;SDS011;70113;59.928;10.878;2023-11-21T02:23:13;11.25;;;6.50;;
80725;SDS011;70113;59.928;10.878;2023-11-21T02:25:40;11.73;;;7.03;;
80725;SDS011;70113;59.928;10.878;2023-11-21T02:28:07;10.40;;;6.00;;
80725;SDS011;70113;59.928;10.878;2023-11-21T02:30:33;11.90;;;6.10;;
80725;SDS011;70113;59.928;10.878;2023-11-21T02:32:59;11.77;;;6.68;;
80725;SDS011;70113;59.928;10.878;2023-11-21T02:35:26;11.55;;;6.05;;
80725;SDS011;70113;59.928;10.878;2023-11-21T02:37:52;12.15;;;5.88;;
80725;SDS011;70113;59.928;10.878;2023-11-21T02:40:18;12.35;;;6.53;;
80725;SDS011;70113;59.928;10.878;2023-11-21T02:42:49;9.35;;;5.97;;
80725;SDS011;70113;59.928;10.878;2023-11-21T02:45:18;10.40;;;5.50;;
80725;SDS011;70113;59.928;10.878;2023-11-21T02:47:46;11.43;;;5.97;;
80725;SDS011;70113;59.928;10.878;2023-11-21T02:50:13;13.70;;;7.35;;
80725;SDS011;70113;59.928;10.878;2023-11-21T02:52:38;12.80;;;5.97;;
80725;SDS011;70113;59.928;10.878;2023-11-21T02:55:05;11.40;;;6.72;;
80725;SDS011;70113;59.928;10.878;2023-11-21T02:57:32;12.82;;;6.35;;
80725;SDS011;70113;59.928;10.878;2023-11-21T02:59:59;13.23;;;6.95;;
80725;SDS011;70113;59.928;10.878;2023-11-21T03:02:25;11.30;;;6.45;;
80725;SDS011;70113;59.928;10.878;2023-11-21T03:04:51;11.43;;;6.03;;
80725;SDS011;70113;59.928;10.878;2023-11-21T03:07:17;17.10;;;6.68;;
80725;SDS011;70113;59.928;10.878;2023-11-21T03:09:45;11.90;;;6.07;;
80725;SDS011;70113;59.928;10.878;2023-11-21T03:12:11;11.65;;;6.72;;
80725;SDS011;70113;59.928;10.878;2023-11-21T03:14:41;10.38;;;6.15;;
80725;SDS011;70113;59.928;10.878;2023-11-21T03:17:07;12.50;;;6.22;;
80725;SDS011;70113;59.928;10.878;2023-11-21T03:19:33;13.55;;;6.78;;
80725;SDS011;70113;59.928;10.878;2023-11-21T03:21:58;13.00;;;6.78;;
80725;SDS011;70113;59.928;10.878;2023-11-21T03:24:24;13.02;;;7.15;;
80725;SDS011;70113;59.928;10.878;2023-11-21T03:26:51;11.68;;;6.50;;
80725;SDS011;70113;59.928;10.878;2023-11-21T03:29:18;12.25;;;6.72;;
80725;SDS011;70113;59.928;10.878;2023-11-21T03:31:43;12.82;;;6.10;;
80725;SDS011;70113;59.928;10.878;2023-11-21T03:34:16;12.18;;;6.20;;
80725;SDS011;70113;59.928;10.878;2023-11-21T03:36:52;12.23;;;6.45;;
80725;SDS011;70113;59.928;10.878;2023-11-21T03:39:21;11.18;;;6.05;;
80725;SDS011;70113;59.928;10.878;2023-11-21T03:41:47;11.70;;;6.38;;
80725;SDS011;70113;59.928;10.878;2023-11-21T03:44:14;11.45;;;6.30;;
80725;SDS011;70113;59.928;10.878;2023-11-21T03:46:39;10.10;;;6.20;;
80725;SDS011;70113;59.928;10.878;2023-11-21T03:49:06;11.90;;;6.40;;
80725;SDS011;70113;59.928;10.878;2023-11-21T03:51:32;12.13;;;7.40;;
80725;SDS011;70113;59.928;10.878;2023-11-21T03:53:59;11.00;;;6.50;;
80725;SDS011;70113;59.928;10.878;2023-11-21T03:56:25;10.52;;;6.45;;
80725;SDS011;70113;59.928;10.878;2023-11-21T03:58:51;12.25;;;6.88;;
80725;SDS011;70113;59.928;10.878;2023-11-21T04:01:22;10.10;;;6.40;;
80725;SDS011;70113;59.928;10.878;2023-11-21T04:03:48;12.85;;;6.38;;
80725;SDS011;70113;59.928;10.878;2023-11-21T04:06:15;11.93;;;6.45;;
80725;SDS011;70113;59.928;10.878;2023-11-21T04:08:45;10.85;;;5.53;;
80725;SDS011;70113;59.928;10.878;2023-11-21T04:11:11;10.52;;;6.20;;
80725;SDS011;70113;59.928;10.878;2023-11-21T04:13:38;11.70;;;6.10;;
80725;SDS011;70113;59.928;10.878;2023-11-21T04:16:05;11.02;;;6.22;;
80725;SDS011;70113;59.928;10.878;2023-11-21T04:18:32;11.45;;;6.55;;
80725;SDS011;70113;59.928;10.878;2023-11-21T04:20:59;11.85;;;6.90;;
80725;SDS011;70113;59.928;10.878;2023-11-21T04:23:25;12.07;;;6.05;;
80725;SDS011;70113;59.928;10.878;2023-11-21T04:25:51;10.35;;;6.20;;
80725;SDS011;70113;59.928;10.878;2023-11-21T04:28:19;11.63;;;6.60;;
80725;SDS011;70113;59.928;10.878;2023-11-21T04:30:45;11.65;;;5.85;;
80725;SDS011;70113;59.928;10.878;2023-11-21T04:33:11;11.32;;;6.55;;
80725;SDS011;70113;59.928;10.878;2023-11-21T04:35:36;10.98;;;6.28;;
80725;SDS011;70113;59.928;10.878;2023-11-21T04:38:02;11.27;;;6.38;;
80725;SDS011;70113;59.928;10.878;2023-11-21T04:40:28;12.38;;;6.25;;
80725;SDS011;70113;59.928;10.878;2023-11-21T04:42:54;11.90;;;6.50;;
80725;SDS011;70113;59.928;10.878;2023-11-21T04:45:19;14.02;;;6.85;;
80725;SDS011;70113;59.928;10.878;2023-11-21T04:47:45;13.88;;;7.93;;
80725;SDS011;70113;59.928;10.878;2023-11-21T04:50:10;11.15;;;6.88;;
80725;SDS011;70113;59.928;10.878;2023-11-21T04:52:36;15.65;;;7.55;;
80725;SDS011;70113;59.928;10.878;2023-11-21T04:55:02;12.65;;;6.45;;
80725;SDS011;70113;59.928;10.878;2023-11-21T04:57:28;14.63;;;7.13;;
80725;SDS011;70113;59.928;10.878;2023-11-21T04:59:54;13.38;;;7.25;;
80725;SDS011;70113;59.928;10.878;2023-11-21T05:02:20;14.23;;;7.05;;
80725;SDS011;70113;59.928;10.878;2023-11-21T05:04:46;14.80;;;7.35;;
80725;SDS011;70113;59.928;10.878;2023-11-21T05:07:13;12.10;;;6.82;;
80725;SDS011;70113;59.928;10.878;2023-11-21T05:09:42;13.95;;;8.23;;
80725;SDS011;70113;59.928;10.878;2023-11-21T05:12:11;14.77;;;7.53;;
80725;SDS011;70113;59.928;10.878;2023-11-21T05:14:38;13.40;;;7.55;;
80725;SDS011;70113;59.928;10.878;2023-11-21T05:17:04;14.70;;;8.10;;
80725;SDS011;70113;59.928;10.878;2023-11-21T05:19:29;13.82;;;7.40;;
80725;SDS011;70113;59.928;10.878;2023-11-21T05:21:55;13.75;;;7.35;;
80725;SDS011;70113;59.928;10.878;2023-11-21T05:24:21;15.32;;;8.20;;
80725;SDS011;70113;59.928;10.878;2023-11-21T05:26:47;14.05;;;7.75;;
80725;SDS011;70113;59.928;10.878;2023-11-21T05:29:12;15.45;;;8.05;;
80725;SDS011;70113;59.928;10.878;2023-11-21T05:31:38;13.35;;;8.27;;
80725;SDS011;70113;59.928;10.878;2023-11-21T05:34:04;13.77;;;7.63;;
80725;SDS011;70113;59.928;10.878;2023-11-21T05:36:30;14.88;;;7.72;;
80725;SDS011;70113;59.928;10.878;2023-11-21T05:41:21;14.68;;;8.00;;
80725;SDS011;70113;59.928;10.878;2023-11-21T05:43:47;13.75;;;8.27;;
80725;SDS011;70113;59.928;10.878;2023-11-21T05:46:13;14.88;;;8.05;;
80725;SDS011;70113;59.928;10.878;2023-11-21T05:48:39;17.15;;;8.57;;
80725;SDS011;70113;59.928;10.878;2023-11-21T05:51:05;15.60;;;8.43;;
80725;SDS011;70113;59.928;10.878;2023-11-21T05:53:32;16.42;;;8.73;;
80725;SDS011;70113;59.928;10.878;2023-11-21T05:55:57;13.82;;;7.68;;
80725;SDS011;70113;59.928;10.878;2023-11-21T05:58:25;15.95;;;8.48;;
80725;SDS011;70113;59.928;10.878;2023-11-21T06:00:50;14.07;;;8.45;;
80725;SDS011;70113;59.928;10.878;2023-11-21T06:03:16;14.02;;;8.98;;
80725;SDS011;70113;59.928;10.878;2023-11-21T06:05:42;16.80;;;8.63;;
80725;SDS011;70113;59.928;10.878;2023-11-21T06:08:11;15.20;;;8.55;;
80725;SDS011;70113;59.928;10.878;2023-11-21T06:10:37;15.65;;;8.93;;
80725;SDS011;70113;59.928;10.878;2023-11-21T06:13:03;16.25;;;8.90;;
80725;SDS011;70113;59.928;10.878;2023-11-21T06:15:29;13.85;;;7.82;;
80725;SDS011;70113;59.928;10.878;2023-11-21T06:17:55;15.18;;;8.10;;
80725;SDS011;70113;59.928;10.878;2023-11-21T06:20:20;16.38;;;9.15;;
80725;SDS011;70113;59.928;10.878;2023-11-21T06:22:48;18.02;;;9.18;;
80725;SDS011;70113;59.928;10.878;2023-11-21T06:25:17;26.88;;;9.20;;
80725;SDS011;70113;59.928;10.878;2023-11-21T06:27:44;15.85;;;9.10;;
80725;SDS011;70113;59.928;10.878;2023-11-21T06:30:11;14.57;;;8.52;;
80725;SDS011;70113;59.928;10.878;2023-11-21T06:32:39;13.98;;;8.93;;
80725;SDS011;70113;59.928;10.878;2023-11-21T06:35:05;15.75;;;9.27;;
80725;SDS011;70113;59.928;10.878;2023-11-21T06:37:32;15.30;;;8.38;;
80725;SDS011;70113;59.928;10.878;2023-11-21T06:39:59;17.13;;;9.43;;
80725;SDS011;70113;59.928;10.878;2023-11-21T06:42:25;17.13;;;9.43;;
80725;SDS011;70113;59.928;10.878;2023-11-21T06:44:52;17.02;;;9.80;;
80725;SDS011;70113;59.928;10.878;2023-11-21T06:47:19;17.50;;;9.90;;
80725;SDS011;70113;59.928;10.878;2023-11-21T06:49:46;16.55;;;9.07;;
80725;SDS011;70113;59.928;10.878;2023-11-21T06:52:13;19.40;;;9.73;;
80725;SDS011;70113;59.928;10.878;2023-11-21T06:54:39;18.00;;;9.25;;
80725;SDS011;70113;59.928;10.878;2023-11-21T06:57:08;15.82;;;8.80;;
80725;SDS011;70113;59.928;10.878;2023-11-21T06:59:33;16.50;;;9.35;;
80725;SDS011;70113;59.928;10.878;2023-11-21T07:01:59;17.63;;;9.18;;
80725;SDS011;70113;59.928;10.878;2023-11-21T07:04:25;17.08;;;9.43;;
80725;SDS011;70113;59.928;10.878;2023-11-21T07:06:51;16.23;;;9.07;;
80725;SDS011;70113;59.928;10.878;2023-11-21T07:09:18;18.67;;;10.10;;
80725;SDS011;70113;59.928;10.878;2023-11-21T07:11:48;16.88;;;9.75;;
80725;SDS011;70113;59.928;10.878;2023-11-21T07:14:14;17.73;;;9.88;;
80725;SDS011;70113;59.928;10.878;2023-11-21T07:16:40;16.90;;;9.45;;
80725;SDS011;70113;59.928;10.878;2023-11-21T07:19:09;17.00;;;9.35;;
80725;SDS011;70113;59.928;10.878;2023-11-21T07:21:35;18.10;;;9.25;;
80725;SDS011;70113;59.928;10.878;2023-11-21T07:24:02;17.13;;;10.70;;
80725;SDS011;70113;59.928;10.878;2023-11-21T07:26:28;15.75;;;8.93;;
80725;SDS011;70113;59.928;10.878;2023-11-21T07:28:54;15.40;;;8.70;;
80725;SDS011;70113;59.928;10.878;2023-11-21T07:31:21;18.25;;;9.90;;
80725;SDS011;70113;59.928;10.878;2023-11-21T07:33:47;18.15;;;9.85;;
80725;SDS011;70113;59.928;10.878;2023-11-21T07:36:14;17.17;;;9.35;;
80725;SDS011;70113;59.928;10.878;2023-11-21T07:38:40;17.08;;;9.52;;
80725;SDS011;70113;59.928;10.878;2023-11-21T07:41:08;16.48;;;9.05;;
80725;SDS011;70113;59.928;10.878;2023-11-21T07:43:34;18.92;;;9.75;;
80725;SDS011;70113;59.928;10.878;2023-11-21T07:46:01;16.40;;;9.32;;
80725;SDS011;70113;59.928;10.878;2023-11-21T07:48:31;15.50;;;8.65;;
80725;SDS011;70113;59.928;10.878;2023-11-21T07:50:58;17.90;;;10.05;;
80725;SDS011;70113;59.928;10.878;2023-11-21T07:53:25;17.15;;;9.40;;
80725;SDS011;70113;59.928;10.878;2023-11-21T07:55:51;19.05;;;9.20;;
80725;SDS011;70113;59.928;10.878;2023-11-21T07:58:21;17.48;;;9.50;;
80725;SDS011;70113;59.928;10.878;2023-11-21T08:00:51;14.95;;;8.70;;
80725;SDS011;70113;59.928;10.878;2023-11-21T08:03:17;16.08;;;9.50;;
80725;SDS011;70113;59.928;10.878;2023-11-21T08:05:43;17.77;;;9.45;;
80725;SDS011;70113;59.928;10.878;2023-11-21T08:08:09;16.30;;;8.95;;
80725;SDS011;70113;59.928;10.878;2023-11-21T08:10:36;19.33;;;10.27;;
80725;SDS011;70113;59.928;10.878;2023-11-21T08:13:02;19.40;;;10.10;;
80725;SDS011;70113;59.928;10.878;2023-11-21T08:15:29;20.13;;;8.98;;
80725;SDS011;70113;59.928;10.878;2023-11-21T08:17:57;20.48;;;10.93;;
80725;SDS011;70113;59.928;10.878;2023-11-21T08:20:24;18.73;;;9.70;;
80725;SDS011;70113;59.928;10.878;2023-11-21T08:22:50;22.42;;;9.45;;
80725;SDS011;70113;59.928;10.878;2023-11-21T08:25:18;18.98;;;10.07;;
80725;SDS011;70113;59.928;10.878;2023-11-21T08:27:46;16.33;;;8.75;;
80725;SDS011;70113;59.928;10.878;2023-11-21T08:30:12;16.73;;;9.68;;
80725;SDS011;70113;59.928;10.878;2023-11-21T08:32:39;16.40;;;9.50;;
80725;SDS011;70113;59.928;10.878;2023-11-21T08:35:07;19.08;;;10.43;;
80725;SDS011;70113;59.928;10.878;2023-11-21T08:37:33;17.73;;;9.98;;
80725;SDS011;70113;59.928;10.878;2023-11-21T08:40:03;18.38;;;9.25;;
80725;SDS011;70113;59.928;10.878;2023-11-21T08:42:33;18.23;;;9.43;;
80725;SDS011;70113;59.928;10.878;2023-11-21T08:44:59;18.13;;;9.15;;
80725;SDS011;70113;59.928;10.878;2023-11-21T08:47:44;17.10;;;9.50;;
80725;SDS011;70113;59.928;10.878;2023-11-21T08:50:10;16.80;;;9.48;;
80725;SDS011;70113;59.928;10.878;2023-11-21T08:52:39;13.98;;;8.65;;
80725;SDS011;70113;59.928;10.878;2023-11-21T08:55:06;15.25;;;8.60;;
80725;SDS011;70113;59.928;10.878;2023-11-21T08:57:40;16.73;;;9.32;;
80725;SDS011;70113;59.928;10.878;2023-11-21T09:00:07;17.58;;;8.40;;
80725;SDS011;70113;59.928;10.878;2023-11-21T10:47:31;18.58;;;9.77;;
80725;SDS011;70113;59.928;10.878;2023-11-21T10:49:57;14.52;;;8.13;;
80725;SDS011;70113;59.928;10.878;2023-11-21T10:52:26;17.98;;;8.60;;
80725;SDS011;70113;59.928;10.878;2023-11-21T10:54:52;18.00;;;8.60;;
80725;SDS011;70113;59.928;10.878;2023-11-21T10:57:18;19.15;;;9.45;;
80725;SDS011;70113;59.928;10.878;2023-11-21T10:59:47;18.83;;;9.00;;
80725;SDS011;70113;59.928;10.878;2023-11-21T11:02:24;17.00;;;9.77;;
80725;SDS011;70113;59.928;10.878;2023-11-21T11:04:54;19.67;;;9.25;;
80725;SDS011;70113;59.928;10.878;2023-11-21T11:07:26;18.58;;;9.35;;
80725;SDS011;70113;59.928;10.878;2023-11-21T11:09:53;17.75;;;9.18;;
80725;SDS011;70113;59.928;10.878;2023-11-21T11:12:20;19.30;;;9.10;;
80725;SDS011;70113;59.928;10.878;2023-11-21T11:14:47;17.92;;;9.05;;
80725;SDS011;70113;59.928;10.878;2023-11-21T11:17:14;16.90;;;8.63;;
80725;SDS011;70113;59.928;10.878;2023-11-21T11:19:40;17.80;;;10.23;;
80725;SDS011;70113;59.928;10.878;2023-11-21T11:30:24;16.83;;;8.80;;
80725;SDS011;70113;59.928;10.878;2023-11-21T11:38:59;19.27;;;9.45;;
80725;SDS011;70113;59.928;10.878;2023-11-21T11:41:28;15.57;;;8.75;;
80725;SDS011;70113;59.928;10.878;2023-11-21T11:43:58;16.50;;;8.55;;
80725;SDS011;70113;59.928;10.878;2023-11-21T11:46:41;16.50;;;8.98;;
80725;SDS011;70113;59.928;10.878;2023-11-21T11:49:23;18.15;;;9.27;;
80725;SDS011;70113;59.928;10.878;2023-11-21T11:54:55;16.77;;;10.00;;
80725;SDS011;70113;59.928;10.878;2023-11-21T11:57:24;15.75;;;8.60;;
80725;SDS011;70113;59.928;10.878;2023-11-21T12:02:44;14.65;;;8.60;;
80725;SDS011;70113;59.928;10.878;2023-11-21T12:05:13;15.82;;;8.73;;
80725;SDS011;70113;59.928;10.878;2023-11-21T12:07:51;16.98;;;9.35;;
80725;SDS011;70113;59.928;10.878;2023-11-21T12:10:29;16.20;;;8.43;;
80725;SDS011;70113;59.928;10.878;2023-11-21T12:12:58;16.30;;;8.27;;
80725;SDS011;70113;59.928;10.878;2023-11-21T12:15:27;15.90;;;8.25;;
80725;SDS011;70113;59.928;10.878;2023-11-21T12:17:57;16.25;;;8.68;;
80725;SDS011;70113;59.928;10.878;2023-11-21T12:20:26;15.48;;;8.52;;
80725;SDS011;70113;59.928;10.878;2023-11-21T12:22:53;18.33;;;8.30;;
80725;SDS011;70113;59.928;10.878;2023-11-21T12:25:23;17.08;;;8.80;;
80725;SDS011;70113;59.928;10.878;2023-11-21T12:27:54;17.05;;;8.02;;
80725;SDS011;70113;59.928;10.878;2023-11-21T12:30:21;19.38;;;9.75;;
80725;SDS011;70113;59.928;10.878;2023-11-21T12:32:52;18.15;;;9.10;;
80725;SDS011;70113;59.928;10.878;2023-11-21T12:35:19;14.00;;;7.70;;
80725;SDS011;70113;59.928;10.878;2023-11-21T12:37:47;17.02;;;9.15;;
80725;SDS011;70113;59.928;10.878;2023-11-21T12:40:14;17.42;;;9.27;;
80725;SDS011;70113;59.928;10.878;2023-11-21T12:42:41;16.88;;;9.25;;
80725;SDS011;70113;59.928;10.878;2023-11-21T12:50:04;19.20;;;8.48;;
80725;SDS011;70113;59.928;10.878;2023-11-21T12:52:32;17.33;;;8.45;;
80725;SDS011;70113;59.928;10.878;2023-11-21T12:54:59;18.33;;;8.85;;
80725;SDS011;70113;59.928;10.878;2023-11-21T12:57:25;17.83;;;8.43;;
80725;SDS011;70113;59.928;10.878;2023-11-21T12:59:56;18.60;;;9.60;;
80725;SDS011;70113;59.928;10.878;2023-11-21T13:02:25;19.60;;;9.65;;
80725;SDS011;70113;59.928;10.878;2023-11-21T13:04:52;21.05;;;10.13;;
80725;SDS011;70113;59.928;10.878;2023-11-21T13:07:19;19.77;;;9.77;;
80725;SDS011;70113;59.928;10.878;2023-11-21T13:09:47;18.63;;;9.50;;
80725;SDS011;70113;59.928;10.878;2023-11-21T13:12:12;20.17;;;9.82;;
80725;SDS011;70113;59.928;10.878;2023-11-21T13:14:39;19.13;;;10.05;;
80725;SDS011;70113;59.928;10.878;2023-11-21T13:17:06;19.50;;;8.57;;
80725;SDS011;70113;59.928;10.878;2023-11-21T13:19:31;18.65;;;9.73;;
80725;SDS011;70113;59.928;10.878;2023-11-21T13:21:57;17.52;;;9.13;;
80725;SDS011;70113;59.928;10.878;2023-11-21T13:24:23;20.23;;;9.43;;
80725;SDS011;70113;59.928;10.878;2023-11-21T13:26:52;18.05;;;8.55;;
80725;SDS011;70113;59.928;10.878;2023-11-21T13:29:18;17.77;;;7.85;;
80725;SDS011;70113;59.928;10.878;2023-11-21T13:31:46;17.83;;;8.68;;
80725;SDS011;70113;59.928;10.878;2023-11-21T13:34:15;16.15;;;8.23;;
80725;SDS011;70113;59.928;10.878;2023-11-21T13:36:44;19.40;;;9.07;;
80725;SDS011;70113;59.928;10.878;2023-11-21T13:39:10;15.73;;;7.70;;
80725;SDS011;70113;59.928;10.878;2023-11-21T13:41:41;16.35;;;7.72;;
80725;SDS011;70113;59.928;10.878;2023-11-21T13:44:06;17.00;;;8.93;;
80725;SDS011;70113;59.928;10.878;2023-11-21T13:46:51;18.17;;;9.00;;
80725;SDS011;70113;59.928;10.878;2023-11-21T13:49:18;17.05;;;8.77;;
80725;SDS011;70113;59.928;10.878;2023-11-21T13:51:46;18.52;;;8.95;;
80725;SDS011;70113;59.928;10.878;2023-11-21T13:54:16;17.65;;;9.15;;
80725;SDS011;70113;59.928;10.878;2023-11-21T13:56:41;17.75;;;8.55;;
80725;SDS011;70113;59.928;10.878;2023-11-21T13:59:09;16.83;;;7.88;;
80725;SDS011;70113;59.928;10.878;2023-11-21T14:01:46;13.93;;;6.53;;
80725;SDS011;70113;59.928;10.878;2023-11-21T14:04:21;15.70;;;7.65;;
80725;SDS011;70113;59.928;10.878;2023-11-21T14:07:04;12.25;;;5.80;;
80725;SDS011;70113;59.928;10.878;2023-11-21T14:09:45;14.50;;;5.85;;
80725;SDS011;70113;59.928;10.878;2023-11-21T14:12:12;17.02;;;7.88;;
80725;SDS011;70113;59.928;10.878;2023-11-21T14:14:38;14.52;;;6.20;;
80725;SDS011;70113;59.928;10.878;2023-11-21T14:17:05;11.88;;;5.75;;
80725;SDS011;70113;59.928;10.878;2023-11-21T14:19:37;14.50;;;6.90;;
80725;SDS011;70113;59.928;10.878;2023-11-21T14:22:11;12.48;;;6.22;;
80725;SDS011;70113;59.928;10.878;2023-11-21T14:24:37;12.82;;;6.30;;
80725;SDS011;70113;59.928;10.878;2023-11-21T14:27:09;13.23;;;7.00;;
80725;SDS011;70113;59.928;10.878;2023-11-21T14:29:35;14.50;;;7.13;;
80725;SDS011;70113;59.928;10.878;2023-11-21T14:32:05;13.93;;;7.18;;
80725;SDS011;70113;59.928;10.878;2023-11-21T14:34:30;17.10;;;7.60;;
80725;SDS011;70113;59.928;10.878;2023-11-21T14:36:56;19.42;;;8.30;;
80725;SDS011;70113;59.928;10.878;2023-11-21T14:39:22;13.48;;;6.70;;
80725;SDS011;70113;59.928;10.878;2023-11-21T14:44:24;14.43;;;6.80;;
80725;SDS011;70113;59.928;10.878;2023-11-21T14:46:53;14.73;;;6.82;;
80725;SDS011;70113;59.928;10.878;2023-11-21T14:49:20;14.75;;;6.88;;
80725;SDS011;70113;59.928;10.878;2023-11-21T14:51:47;15.20;;;7.68;;
80725;SDS011;70113;59.928;10.878;2023-11-21T14:54:28;12.95;;;6.78;;
80725;SDS011;70113;59.928;10.878;2023-11-21T14:57:10;14.77;;;7.30;;
80725;SDS011;70113;59.928;10.878;2023-11-21T14:59:44;14.73;;;7.28;;
80725;SDS011;70113;59.928;10.878;2023-11-21T15:02:14;14.82;;;6.85;;
80725;SDS011;70113;59.928;10.878;2023-11-21T15:04:41;15.57;;;7.50;;
80725;SDS011;70113;59.928;10.878;2023-11-21T15:07:08;14.32;;;7.20;;
80725;SDS011;70113;59.928;10.878;2023-11-21T15:09:34;15.23;;;7.00;;
80725;SDS011;70113;59.928;10.878;2023-11-21T15:12:04;13.38;;;7.70;;
80725;SDS011;70113;59.928;10.878;2023-11-21T15:14:53;14.13;;;6.68;;
80725;SDS011;70113;59.928;10.878;2023-11-21T15:17:21;16.67;;;7.65;;
80725;SDS011;70113;59.928;10.878;2023-11-21T15:19:51;16.38;;;7.80;;
80725;SDS011;70113;59.928;10.878;2023-11-21T15:22:18;15.88;;;8.05;;
80725;SDS011;70113;59.928;10.878;2023-11-21T15:24:44;14.05;;;6.68;;
80725;SDS011;70113;59.928;10.878;2023-11-21T15:27:13;14.70;;;6.82;;
80725;SDS011;70113;59.928;10.878;2023-11-21T15:29:39;15.32;;;7.50;;
80725;SDS011;70113;59.928;10.878;2023-11-21T15:32:06;14.02;;;7.28;;
80725;SDS011;70113;59.928;10.878;2023-11-21T15:34:33;15.20;;;7.32;;
80725;SDS011;70113;59.928;10.878;2023-11-21T15:37:02;16.02;;;6.97;;
80725;SDS011;70113;59.928;10.878;2023-11-21T15:39:29;17.67;;;7.68;;
80725;SDS011;70113;59.928;10.878;2023-11-21T15:41:56;14.35;;;7.70;;
80725;SDS011;70113;59.928;10.878;2023-11-21T15:44:23;15.35;;;7.70;;
80725;SDS011;70113;59.928;10.878;2023-11-21T15:46:51;15.13;;;7.43;;
80725;SDS011;70113;59.928;10.878;2023-11-21T15:49:17;14.82;;;7.22;;
80725;SDS011;70113;59.928;10.878;2023-11-21T15:51:48;12.75;;;6.75;;
80725;SDS011;70113;59.928;10.878;2023-11-21T15:54:23;13.85;;;7.22;;
80725;SDS011;70113;59.928;10.878;2023-11-21T15:56:51;13.40;;;6.43;;
80725;SDS011;70113;59.928;10.878;2023-11-21T15:59:17;13.68;;;7.00;;
80725;SDS011;70113;59.928;10.878;2023-11-21T16:01:44;13.45;;;6.95;;
80725;SDS011;70113;59.928;10.878;2023-11-21T16:04:12;12.70;;;6.05;;
80725;SDS011;70113;59.928;10.878;2023-11-21T16:06:43;13.65;;;6.90;;
80725;SDS011;70113;59.928;10.878;2023-11-21T16:09:11;12.48;;;7.25;;
80725;SDS011;70113;59.928;10.878;2023-11-21T16:12:05;11.10;;;5.90;;
80725;SDS011;70113;59.928;10.878;2023-11-21T16:14:34;16.00;;;6.47;;
80725;SDS011;70113;59.928;10.878;2023-11-21T16:17:07;12.85;;;6.47;;
80725;SDS011;70113;59.928;10.878;2023-11-21T16:19:33;13.85;;;6.45;;
80725;SDS011;70113;59.928;10.878;2023-11-21T16:22:00;14.65;;;6.35;;
80725;SDS011;70113;59.928;10.878;2023-11-21T16:24:26;12.73;;;7.10;;
80725;SDS011;70113;59.928;10.878;2023-11-21T16:27:02;12.13;;;6.07;;
80725;SDS011;70113;59.928;10.878;2023-11-21T16:29:29;13.63;;;6.82;;
80725;SDS011;70113;59.928;10.878;2023-11-21T16:31:56;14.35;;;7.38;;
80725;SDS011;70113;59.928;10.878;2023-11-21T16:48:16;15.88;;;7.80;;
80725;SDS011;70113;59.928;10.878;2023-11-21T16:50:44;12.77;;;6.63;;
80725;SDS011;70113;59.928;10.878;2023-11-21T16:53:10;14.52;;;8.15;;
80725;SDS011;70113;59.928;10.878;2023-11-21T16:55:36;19.05;;;10.65;;
80725;SDS011;70113;59.928;10.878;2023-11-21T16:58:03;16.08;;;9.40;;
80725;SDS011;70113;59.928;10.878;2023-11-21T17:00:29;16.90;;;9.48;;
80725;SDS011;70113;59.928;10.878;2023-11-21T17:02:55;17.63;;;9.45;;
80725;SDS011;70113;59.928;10.878;2023-11-21T17:05:22;18.40;;;9.32;;
80725;SDS011;70113;59.928;10.878;2023-11-21T17:07:48;18.02;;;9.60;;
80725;SDS011;70113;59.928;10.878;2023-11-21T17:10:17;19.25;;;9.88;;
80725;SDS011;70113;59.928;10.878;2023-11-21T17:12:44;19.17;;;10.52;;
80725;SDS011;70113;59.928;10.878;2023-11-21T17:15:10;18.70;;;9.73;;
80725;SDS011;70113;59.928;10.878;2023-11-21T17:17:36;19.25;;;10.00;;
80725;SDS011;70113;59.928;10.878;2023-11-21T17:20:02;23.05;;;10.70;;
80725;SDS011;70113;59.928;10.878;2023-11-21T17:22:33;18.65;;;10.85;;
80725;SDS011;70113;59.928;10.878;2023-11-21T17:24:59;20.20;;;10.48;;
80725;SDS011;70113;59.928;10.878;2023-11-21T17:27:26;18.58;;;10.52;;
80725;SDS011;70113;59.928;10.878;2023-11-21T17:29:52;19.35;;;11.07;;